sensor_id;sensor_type;location;lat;lon;timestamp;P1;durP1;ratioP1;P2;durP2;ratioP2
10045;SDS011;5063;50.878;4.742;2022-11-24T00:00:53;13.27;;;2.53;;
10045;SDS011;5063;50.878;4.742;2022-11-24T00:03:25;11.13;;;3.60;;
10045;SDS011;5063;50.878;4.742;2022-11-24T00:05:51;11.83;;;3.10;;
10045;SDS011;5063;50.878;4.742;2022-11-24T00:08:17;6.77;;;2.40;;
10045;SDS011;5063;50.878;4.742;2022-11-24T00:10:42;11.70;;;3.70;;
10045;SDS011;5063;50.878;4.742;2022-11-24T00:13:08;12.00;;;3.17;;
10045;SDS011;5063;50.878;4.742;2022-11-24T00:15:34;11.80;;;3.63;;
10045;SDS011;5063;50.878;4.742;2022-11-24T00:17:59;13.43;;;4.10;;
10045;SDS011;5063;50.878;4.742;2022-11-24T00:20:25;12.40;;;3.53;;
10045;SDS011;5063;50.878;4.742;2022-11-24T00:22:51;13.03;;;3.70;;
10045;SDS011;5063;50.878;4.742;2022-11-24T00:25:16;19.13;;;4.07;;
10045;SDS011;5063;50.878;4.742;2022-11-24T00:27:42;16.43;;;4.23;;
10045;SDS011;5063;50.878;4.742;2022-11-24T00:30:08;12.87;;;3.53;;
10045;SDS011;5063;50.878;4.742;2022-11-24T00:32:34;18.87;;;4.13;;
10045;SDS011;5063;50.878;4.742;2022-11-24T00:34:59;9.70;;;2.63;;
10045;SDS011;5063;50.878;4.742;2022-11-24T00:37:25;12.20;;;3.33;;
10045;SDS011;5063;50.878;4.742;2022-11-24T00:39:51;16.83;;;3.77;;
10045;SDS011;5063;50.878;4.742;2022-11-24T00:42:16;13.70;;;3.87;;
10045;SDS011;5063;50.878;4.742;2022-11-24T00:44:42;15.57;;;3.93;;
10045;SDS011;5063;50.878;4.742;2022-11-24T00:47:08;16.60;;;3.23;;
10045;SDS011;5063;50.878;4.742;2022-11-24T00:49:33;11.27;;;3.53;;
10045;SDS011;5063;50.878;4.742;2022-11-24T00:52:00;12.33;;;3.03;;
10045;SDS011;5063;50.878;4.742;2022-11-24T00:54:26;22.90;;;3.80;;
10045;SDS011;5063;50.878;4.742;2022-11-24T00:56:51;17.70;;;4.33;;
10045;SDS011;5063;50.878;4.742;2022-11-24T00:59:17;12.77;;;3.90;;
10045;SDS011;5063;50.878;4.742;2022-11-24T01:01:43;15.73;;;3.67;;
10045;SDS011;5063;50.878;4.742;2022-11-24T01:04:08;21.30;;;4.43;;
10045;SDS011;5063;50.878;4.742;2022-11-24T01:06:34;15.40;;;3.80;;
10045;SDS011;5063;50.878;4.742;2022-11-24T01:09:00;19.07;;;3.87;;
10045;SDS011;5063;50.878;4.742;2022-11-24T01:11:27;12.27;;;3.67;;
10045;SDS011;5063;50.878;4.742;2022-11-24T01:14:15;17.10;;;4.40;;
10045;SDS011;5063;50.878;4.742;2022-11-24T01:16:40;17.30;;;4.30;;
10045;SDS011;5063;50.878;4.742;2022-11-24T01:19:06;20.43;;;4.00;;
10045;SDS011;5063;50.878;4.742;2022-11-24T01:21:32;13.50;;;4.57;;
10045;SDS011;5063;50.878;4.742;2022-11-24T01:23:57;11.13;;;3.20;;
10045;SDS011;5063;50.878;4.742;2022-11-24T01:26:23;15.63;;;3.83;;
10045;SDS011;5063;50.878;4.742;2022-11-24T01:28:52;15.67;;;4.37;;
10045;SDS011;5063;50.878;4.742;2022-11-24T01:31:19;14.57;;;3.43;;
10045;SDS011;5063;50.878;4.742;2022-11-24T01:33:45;15.37;;;4.23;;
10045;SDS011;5063;50.878;4.742;2022-11-24T01:36:11;20.73;;;5.23;;
10045;SDS011;5063;50.878;4.742;2022-11-24T01:38:37;15.47;;;4.60;;
10045;SDS011;5063;50.878;4.742;2022-11-24T01:41:06;15.17;;;3.70;;
10045;SDS011;5063;50.878;4.742;2022-11-24T01:43:40;18.73;;;4.57;;
10045;SDS011;5063;50.878;4.742;2022-11-24T01:46:12;11.43;;;3.50;;
10045;SDS011;5063;50.878;4.742;2022-11-24T01:48:42;20.17;;;4.27;;
10045;SDS011;5063;50.878;4.742;2022-11-24T01:51:14;16.33;;;4.33;;
10045;SDS011;5063;50.878;4.742;2022-11-24T01:53:48;14.13;;;3.93;;
10045;SDS011;5063;50.878;4.742;2022-11-24T01:56:21;22.53;;;3.90;;
10045;SDS011;5063;50.878;4.742;2022-11-24T01:58:48;15.63;;;4.27;;
10045;SDS011;5063;50.878;4.742;2022-11-24T02:01:16;24.67;;;4.53;;
10045;SDS011;5063;50.878;4.742;2022-11-24T02:03:42;15.30;;;4.63;;
10045;SDS011;5063;50.878;4.742;2022-11-24T02:06:13;13.93;;;4.10;;
10045;SDS011;5063;50.878;4.742;2022-11-24T02:08:48;24.70;;;4.13;;
10045;SDS011;5063;50.878;4.742;2022-11-24T02:11:24;16.70;;;4.30;;
10045;SDS011;5063;50.878;4.742;2022-11-24T02:13:53;18.70;;;4.47;;
10045;SDS011;5063;50.878;4.742;2022-11-24T02:16:20;16.40;;;4.23;;
10045;SDS011;5063;50.878;4.742;2022-11-24T02:18:46;17.03;;;4.70;;
10045;SDS011;5063;50.878;4.742;2022-11-24T02:21:12;19.83;;;4.50;;
10045;SDS011;5063;50.878;4.742;2022-11-24T02:29:07;15.73;;;3.73;;
10045;SDS011;5063;50.878;4.742;2022-11-24T02:31:34;19.27;;;5.07;;
10045;SDS011;5063;50.878;4.742;2022-11-24T02:34:00;15.97;;;3.63;;
10045;SDS011;5063;50.878;4.742;2022-11-24T02:36:26;17.50;;;4.60;;
10045;SDS011;5063;50.878;4.742;2022-11-24T02:38:51;25.00;;;4.30;;
10045;SDS011;5063;50.878;4.742;2022-11-24T02:41:18;15.20;;;4.53;;
10045;SDS011;5063;50.878;4.742;2022-11-24T02:43:51;22.20;;;4.73;;
10045;SDS011;5063;50.878;4.742;2022-11-24T02:46:20;15.30;;;3.90;;
10045;SDS011;5063;50.878;4.742;2022-11-24T02:48:46;24.33;;;4.53;;
10045;SDS011;5063;50.878;4.742;2022-11-24T02:51:12;15.60;;;4.43;;
10045;SDS011;5063;50.878;4.742;2022-11-24T02:53:38;17.23;;;4.07;;
10045;SDS011;5063;50.878;4.742;2022-11-24T02:56:04;18.50;;;3.80;;
10045;SDS011;5063;50.878;4.742;2022-11-24T02:58:30;13.50;;;4.13;;
10045;SDS011;5063;50.878;4.742;2022-11-24T03:00:55;19.13;;;4.33;;
10045;SDS011;5063;50.878;4.742;2022-11-24T03:03:22;20.67;;;4.37;;
10045;SDS011;5063;50.878;4.742;2022-11-24T03:05:48;17.27;;;4.27;;
10045;SDS011;5063;50.878;4.742;2022-11-24T03:08:14;14.20;;;4.10;;
10045;SDS011;5063;50.878;4.742;2022-11-24T03:10:40;15.63;;;4.93;;
10045;SDS011;5063;50.878;4.742;2022-11-24T03:13:06;18.17;;;3.93;;
10045;SDS011;5063;50.878;4.742;2022-11-24T03:15:32;15.97;;;4.50;;
10045;SDS011;5063;50.878;4.742;2022-11-24T03:17:58;18.33;;;4.17;;
10045;SDS011;5063;50.878;4.742;2022-11-24T03:20:24;16.13;;;4.60;;
10045;SDS011;5063;50.878;4.742;2022-11-24T03:22:50;17.17;;;3.80;;
10045;SDS011;5063;50.878;4.742;2022-11-24T03:25:16;18.77;;;4.27;;
10045;SDS011;5063;50.878;4.742;2022-11-24T03:27:42;14.17;;;4.37;;
10045;SDS011;5063;50.878;4.742;2022-11-24T03:30:08;17.90;;;5.17;;
10045;SDS011;5063;50.878;4.742;2022-11-24T03:32:34;15.53;;;4.30;;
10045;SDS011;5063;50.878;4.742;2022-11-24T03:35:00;20.17;;;3.70;;
10045;SDS011;5063;50.878;4.742;2022-11-24T03:37:26;20.13;;;4.60;;
10045;SDS011;5063;50.878;4.742;2022-11-24T03:39:52;19.60;;;4.03;;
10045;SDS011;5063;50.878;4.742;2022-11-24T03:42:18;15.63;;;4.43;;
10045;SDS011;5063;50.878;4.742;2022-11-24T03:44:43;20.30;;;4.80;;
10045;SDS011;5063;50.878;4.742;2022-11-24T03:47:09;20.37;;;4.53;;
10045;SDS011;5063;50.878;4.742;2022-11-24T03:49:35;17.83;;;4.50;;
10045;SDS011;5063;50.878;4.742;2022-11-24T03:52:01;16.93;;;4.17;;
10045;SDS011;5063;50.878;4.742;2022-11-24T03:54:27;20.77;;;4.93;;
10045;SDS011;5063;50.878;4.742;2022-11-24T03:56:53;10.27;;;3.70;;
10045;SDS011;5063;50.878;4.742;2022-11-24T03:59:18;14.83;;;3.37;;
10045;SDS011;5063;50.878;4.742;2022-11-24T04:01:44;10.93;;;3.80;;
10045;SDS011;5063;50.878;4.742;2022-11-24T04:04:10;9.63;;;2.77;;
10045;SDS011;5063;50.878;4.742;2022-11-24T04:06:37;14.07;;;3.47;;
10045;SDS011;5063;50.878;4.742;2022-11-24T04:09:03;16.03;;;3.37;;
10045;SDS011;5063;50.878;4.742;2022-11-24T04:11:28;8.27;;;2.80;;
10045;SDS011;5063;50.878;4.742;2022-11-24T04:14:13;15.80;;;3.20;;
10045;SDS011;5063;50.878;4.742;2022-11-24T04:16:38;10.33;;;2.47;;
10045;SDS011;5063;50.878;4.742;2022-11-24T04:19:04;6.97;;;2.43;;
10045;SDS011;5063;50.878;4.742;2022-11-24T04:21:30;7.83;;;2.70;;
10045;SDS011;5063;50.878;4.742;2022-11-24T04:23:56;8.27;;;2.13;;
10045;SDS011;5063;50.878;4.742;2022-11-24T04:26:22;7.37;;;2.43;;
10045;SDS011;5063;50.878;4.742;2022-11-24T04:28:47;7.90;;;2.37;;
10045;SDS011;5063;50.878;4.742;2022-11-24T04:31:13;6.77;;;2.17;;
10045;SDS011;5063;50.878;4.742;2022-11-24T04:33:39;7.00;;;2.53;;
10045;SDS011;5063;50.878;4.742;2022-11-24T04:36:05;12.83;;;3.77;;
10045;SDS011;5063;50.878;4.742;2022-11-24T04:38:31;8.30;;;2.07;;
10045;SDS011;5063;50.878;4.742;2022-11-24T04:41:03;7.50;;;2.60;;
10045;SDS011;5063;50.878;4.742;2022-11-24T04:43:29;6.53;;;2.37;;
10045;SDS011;5063;50.878;4.742;2022-11-24T04:45:58;6.80;;;1.77;;
10045;SDS011;5063;50.878;4.742;2022-11-24T04:48:25;4.63;;;1.90;;
10045;SDS011;5063;50.878;4.742;2022-11-24T04:50:51;5.20;;;1.70;;
10045;SDS011;5063;50.878;4.742;2022-11-24T04:53:17;5.53;;;1.80;;
10045;SDS011;5063;50.878;4.742;2022-11-24T04:55:42;6.13;;;1.80;;
10045;SDS011;5063;50.878;4.742;2022-11-24T04:58:11;5.00;;;1.87;;
10045;SDS011;5063;50.878;4.742;2022-11-24T05:00:37;1.83;;;1.57;;
10045;SDS011;5063;50.878;4.742;2022-11-24T05:03:03;3.83;;;1.67;;
10045;SDS011;5063;50.878;4.742;2022-11-24T05:05:30;3.50;;;1.50;;
10045;SDS011;5063;50.878;4.742;2022-11-24T05:07:57;4.70;;;1.60;;
10045;SDS011;5063;50.878;4.742;2022-11-24T05:10:24;2.40;;;1.20;;
10045;SDS011;5063;50.878;4.742;2022-11-24T05:12:59;1.57;;;1.00;;
10045;SDS011;5063;50.878;4.742;2022-11-24T05:15:25;3.37;;;1.27;;
10045;SDS011;5063;50.878;4.742;2022-11-24T05:17:51;4.40;;;1.50;;
10045;SDS011;5063;50.878;4.742;2022-11-24T05:20:18;3.43;;;1.37;;
10045;SDS011;5063;50.878;4.742;2022-11-24T05:22:43;4.73;;;1.70;;
10045;SDS011;5063;50.878;4.742;2022-11-24T05:25:09;4.50;;;1.23;;
10045;SDS011;5063;50.878;4.742;2022-11-24T05:27:35;4.20;;;1.50;;
10045;SDS011;5063;50.878;4.742;2022-11-24T05:30:01;3.63;;;1.20;;
10045;SDS011;5063;50.878;4.742;2022-11-24T05:32:27;3.73;;;1.60;;
10045;SDS011;5063;50.878;4.742;2022-11-24T05:34:53;7.47;;;1.53;;
10045;SDS011;5063;50.878;4.742;2022-11-24T05:37:19;3.13;;;1.40;;
10045;SDS011;5063;50.878;4.742;2022-11-24T05:39:45;5.00;;;1.40;;
10045;SDS011;5063;50.878;4.742;2022-11-24T05:42:11;5.73;;;1.20;;
10045;SDS011;5063;50.878;4.742;2022-11-24T05:45:08;3.40;;;1.00;;
10045;SDS011;5063;50.878;4.742;2022-11-24T05:47:39;4.43;;;1.13;;
10045;SDS011;5063;50.878;4.742;2022-11-24T05:50:06;1.87;;;1.43;;
10045;SDS011;5063;50.878;4.742;2022-11-24T05:52:33;3.57;;;1.30;;
10045;SDS011;5063;50.878;4.742;2022-11-24T05:54:59;6.47;;;1.47;;
10045;SDS011;5063;50.878;4.742;2022-11-24T05:57:25;4.20;;;1.27;;
10045;SDS011;5063;50.878;4.742;2022-11-24T05:59:51;4.23;;;1.23;;
10045;SDS011;5063;50.878;4.742;2022-11-24T06:02:17;7.37;;;1.50;;
10045;SDS011;5063;50.878;4.742;2022-11-24T06:04:43;2.83;;;1.60;;
10045;SDS011;5063;50.878;4.742;2022-11-24T06:07:09;5.50;;;2.03;;
10045;SDS011;5063;50.878;4.742;2022-11-24T06:09:37;3.93;;;1.50;;
10045;SDS011;5063;50.878;4.742;2022-11-24T06:12:05;6.20;;;1.90;;
10045;SDS011;5063;50.878;4.742;2022-11-24T06:14:31;4.13;;;1.53;;
10045;SDS011;5063;50.878;4.742;2022-11-24T06:16:57;6.20;;;1.80;;
10045;SDS011;5063;50.878;4.742;2022-11-24T06:19:23;4.23;;;1.87;;
10045;SDS011;5063;50.878;4.742;2022-11-24T06:21:48;9.83;;;2.00;;
10045;SDS011;5063;50.878;4.742;2022-11-24T06:24:14;12.20;;;2.77;;
10045;SDS011;5063;50.878;4.742;2022-11-24T06:26:40;6.00;;;2.07;;
10045;SDS011;5063;50.878;4.742;2022-11-24T06:29:06;9.47;;;2.53;;
10045;SDS011;5063;50.878;4.742;2022-11-24T06:31:32;7.93;;;2.70;;
10045;SDS011;5063;50.878;4.742;2022-11-24T06:33:58;6.30;;;1.60;;
10045;SDS011;5063;50.878;4.742;2022-11-24T06:36:24;5.77;;;1.97;;
10045;SDS011;5063;50.878;4.742;2022-11-24T06:38:51;9.97;;;2.20;;
10045;SDS011;5063;50.878;4.742;2022-11-24T06:41:17;8.87;;;2.60;;
10045;SDS011;5063;50.878;4.742;2022-11-24T06:43:43;10.10;;;2.40;;
10045;SDS011;5063;50.878;4.742;2022-11-24T06:46:09;10.30;;;2.10;;
10045;SDS011;5063;50.878;4.742;2022-11-24T06:48:35;10.13;;;2.30;;
10045;SDS011;5063;50.878;4.742;2022-11-24T06:51:03;9.83;;;2.37;;
10045;SDS011;5063;50.878;4.742;2022-11-24T06:53:35;9.30;;;2.70;;
10045;SDS011;5063;50.878;4.742;2022-11-24T06:56:03;11.33;;;2.63;;
10045;SDS011;5063;50.878;4.742;2022-11-24T06:58:30;11.37;;;2.37;;
10045;SDS011;5063;50.878;4.742;2022-11-24T07:00:56;12.37;;;2.60;;
10045;SDS011;5063;50.878;4.742;2022-11-24T07:03:21;8.37;;;2.47;;
10045;SDS011;5063;50.878;4.742;2022-11-24T07:05:47;8.80;;;2.23;;
10045;SDS011;5063;50.878;4.742;2022-11-24T07:08:13;13.77;;;2.90;;
10045;SDS011;5063;50.878;4.742;2022-11-24T07:10:39;7.80;;;2.13;;
10045;SDS011;5063;50.878;4.742;2022-11-24T07:13:06;11.97;;;2.87;;
10045;SDS011;5063;50.878;4.742;2022-11-24T07:15:32;9.53;;;2.50;;
10045;SDS011;5063;50.878;4.742;2022-11-24T07:17:57;9.00;;;2.47;;
10045;SDS011;5063;50.878;4.742;2022-11-24T07:20:23;12.10;;;2.73;;
10045;SDS011;5063;50.878;4.742;2022-11-24T07:22:53;9.27;;;3.03;;
10045;SDS011;5063;50.878;4.742;2022-11-24T07:25:25;5.53;;;1.90;;
10045;SDS011;5063;50.878;4.742;2022-11-24T07:27:58;11.40;;;2.47;;
10045;SDS011;5063;50.878;4.742;2022-11-24T07:30:24;13.67;;;2.73;;
10045;SDS011;5063;50.878;4.742;2022-11-24T07:32:51;6.77;;;2.37;;
10045;SDS011;5063;50.878;4.742;2022-11-24T07:35:23;6.97;;;2.20;;
10045;SDS011;5063;50.878;4.742;2022-11-24T07:37:49;9.77;;;2.50;;
10045;SDS011;5063;50.878;4.742;2022-11-24T07:40:14;11.77;;;2.33;;
10045;SDS011;5063;50.878;4.742;2022-11-24T07:42:40;6.00;;;2.10;;
10045;SDS011;5063;50.878;4.742;2022-11-24T07:45:06;6.90;;;2.20;;
10045;SDS011;5063;50.878;4.742;2022-11-24T07:47:32;11.77;;;2.40;;
10045;SDS011;5063;50.878;4.742;2022-11-24T07:50:02;7.53;;;2.37;;
10045;SDS011;5063;50.878;4.742;2022-11-24T07:52:28;9.10;;;2.60;;
10045;SDS011;5063;50.878;4.742;2022-11-24T07:54:53;5.97;;;1.83;;
10045;SDS011;5063;50.878;4.742;2022-11-24T07:57:19;8.80;;;2.63;;
10045;SDS011;5063;50.878;4.742;2022-11-24T07:59:45;9.57;;;1.70;;
10045;SDS011;5063;50.878;4.742;2022-11-24T08:02:11;7.40;;;2.17;;
10045;SDS011;5063;50.878;4.742;2022-11-24T08:04:37;7.47;;;2.07;;
10045;SDS011;5063;50.878;4.742;2022-11-24T08:07:03;7.40;;;1.87;;
10045;SDS011;5063;50.878;4.742;2022-11-24T08:09:29;6.60;;;2.67;;
10045;SDS011;5063;50.878;4.742;2022-11-24T08:11:54;7.03;;;2.13;;
10045;SDS011;5063;50.878;4.742;2022-11-24T08:14:20;6.77;;;1.90;;
10045;SDS011;5063;50.878;4.742;2022-11-24T08:16:46;8.70;;;2.20;;
10045;SDS011;5063;50.878;4.742;2022-11-24T08:19:11;10.87;;;2.27;;
10045;SDS011;5063;50.878;4.742;2022-11-24T08:21:37;10.63;;;2.53;;
10045;SDS011;5063;50.878;4.742;2022-11-24T08:24:03;8.83;;;1.83;;
10045;SDS011;5063;50.878;4.742;2022-11-24T08:26:29;6.23;;;2.53;;
10045;SDS011;5063;50.878;4.742;2022-11-24T08:28:56;8.47;;;2.40;;
10045;SDS011;5063;50.878;4.742;2022-11-24T08:31:23;5.63;;;2.20;;
10045;SDS011;5063;50.878;4.742;2022-11-24T08:33:51;9.87;;;2.23;;
10045;SDS011;5063;50.878;4.742;2022-11-24T08:36:18;12.73;;;2.77;;
10045;SDS011;5063;50.878;4.742;2022-11-24T08:38:44;6.57;;;1.70;;
10045;SDS011;5063;50.878;4.742;2022-11-24T08:41:12;10.73;;;1.80;;
10045;SDS011;5063;50.878;4.742;2022-11-24T08:43:38;10.40;;;2.57;;
10045;SDS011;5063;50.878;4.742;2022-11-24T08:46:05;9.13;;;2.73;;
10045;SDS011;5063;50.878;4.742;2022-11-24T08:48:32;4.77;;;2.23;;
10045;SDS011;5063;50.878;4.742;2022-11-24T08:51:04;8.87;;;2.20;;
10045;SDS011;5063;50.878;4.742;2022-11-24T08:53:31;7.13;;;1.97;;
10045;SDS011;5063;50.878;4.742;2022-11-24T08:56:01;8.10;;;2.50;;
10045;SDS011;5063;50.878;4.742;2022-11-24T08:58:28;10.33;;;2.80;;
10045;SDS011;5063;50.878;4.742;2022-11-24T09:00:54;11.40;;;2.63;;
10045;SDS011;5063;50.878;4.742;2022-11-24T09:03:20;6.93;;;2.37;;
10045;SDS011;5063;50.878;4.742;2022-11-24T09:05:46;11.30;;;2.17;;
10045;SDS011;5063;50.878;4.742;2022-11-24T09:08:12;8.00;;;2.30;;
10045;SDS011;5063;50.878;4.742;2022-11-24T09:10:37;8.57;;;2.73;;
10045;SDS011;5063;50.878;4.742;2022-11-24T09:13:03;12.93;;;2.73;;
10045;SDS011;5063;50.878;4.742;2022-11-24T09:15:30;8.03;;;2.27;;
10045;SDS011;5063;50.878;4.742;2022-11-24T09:17:56;10.10;;;2.30;;
10045;SDS011;5063;50.878;4.742;2022-11-24T09:20:21;9.10;;;2.73;;
10045;SDS011;5063;50.878;4.742;2022-11-24T09:22:47;7.17;;;2.57;;
10045;SDS011;5063;50.878;4.742;2022-11-24T09:25:13;8.73;;;1.93;;
10045;SDS011;5063;50.878;4.742;2022-11-24T09:27:39;11.30;;;2.27;;
10045;SDS011;5063;50.878;4.742;2022-11-24T09:30:05;6.60;;;2.20;;
10045;SDS011;5063;50.878;4.742;2022-11-24T09:32:31;8.60;;;2.30;;
10045;SDS011;5063;50.878;4.742;2022-11-24T09:34:57;9.33;;;2.73;;
10045;SDS011;5063;50.878;4.742;2022-11-24T09:37:22;8.73;;;2.07;;
10045;SDS011;5063;50.878;4.742;2022-11-24T09:39:48;7.70;;;2.53;;
10045;SDS011;5063;50.878;4.742;2022-11-24T09:50:21;8.13;;;2.30;;
10045;SDS011;5063;50.878;4.742;2022-11-24T09:53:19;7.60;;;2.77;;
10045;SDS011;5063;50.878;4.742;2022-11-24T09:56:02;15.77;;;3.00;;
10045;SDS011;5063;50.878;4.742;2022-11-24T10:01:39;6.47;;;2.17;;
10045;SDS011;5063;50.878;4.742;2022-11-24T10:12:29;8.00;;;2.80;;
10045;SDS011;5063;50.878;4.742;2022-11-24T10:20:50;7.67;;;2.30;;
10045;SDS011;5063;50.878;4.742;2022-11-24T10:26:12;7.70;;;2.57;;
10045;SDS011;5063;50.878;4.742;2022-11-24T10:28:48;14.13;;;3.00;;
10045;SDS011;5063;50.878;4.742;2022-11-24T10:31:23;4.30;;;2.13;;
10045;SDS011;5063;50.878;4.742;2022-11-24T10:34:04;10.77;;;2.57;;
10045;SDS011;5063;50.878;4.742;2022-11-24T10:37:02;11.23;;;2.47;;
10045;SDS011;5063;50.878;4.742;2022-11-24T10:39:39;11.07;;;2.33;;
10045;SDS011;5063;50.878;4.742;2022-11-24T10:42:17;15.50;;;2.77;;
10045;SDS011;5063;50.878;4.742;2022-11-24T10:47:26;9.77;;;2.30;;
10045;SDS011;5063;50.878;4.742;2022-11-24T10:49:59;11.40;;;2.43;;
10045;SDS011;5063;50.878;4.742;2022-11-24T10:52:30;9.30;;;1.67;;
10045;SDS011;5063;50.878;4.742;2022-11-24T10:55:04;8.67;;;2.67;;
10045;SDS011;5063;50.878;4.742;2022-11-24T10:57:31;7.07;;;2.07;;
10045;SDS011;5063;50.878;4.742;2022-11-24T10:59:59;10.33;;;2.60;;
10045;SDS011;5063;50.878;4.742;2022-11-24T11:08:13;12.23;;;2.97;;
10045;SDS011;5063;50.878;4.742;2022-11-24T11:10:51;12.93;;;3.10;;
10045;SDS011;5063;50.878;4.742;2022-11-24T11:13:50;7.57;;;2.10;;
10045;SDS011;5063;50.878;4.742;2022-11-24T11:18:51;6.47;;;2.63;;
10045;SDS011;5063;50.878;4.742;2022-11-24T11:24:13;9.67;;;2.97;;
10045;SDS011;5063;50.878;4.742;2022-11-24T11:26:41;6.83;;;2.13;;
10045;SDS011;5063;50.878;4.742;2022-11-24T11:31:37;13.53;;;3.20;;
10045;SDS011;5063;50.878;4.742;2022-11-24T11:36:42;12.17;;;2.90;;
10045;SDS011;5063;50.878;4.742;2022-11-24T11:39:18;10.47;;;3.07;;
10045;SDS011;5063;50.878;4.742;2022-11-24T11:41:52;11.83;;;2.67;;
10045;SDS011;5063;50.878;4.742;2022-11-24T11:44:31;11.40;;;2.57;;
10045;SDS011;5063;50.878;4.742;2022-11-24T11:50:14;11.10;;;2.50;;
10045;SDS011;5063;50.878;4.742;2022-11-24T12:09:26;9.23;;;3.57;;
10045;SDS011;5063;50.878;4.742;2022-11-24T12:12:24;9.93;;;2.83;;
10045;SDS011;5063;50.878;4.742;2022-11-24T12:15:07;17.60;;;3.40;;
10045;SDS011;5063;50.878;4.742;2022-11-24T12:32:40;12.23;;;3.10;;
10045;SDS011;5063;50.878;4.742;2022-11-24T12:40:22;8.83;;;3.03;;
10045;SDS011;5063;50.878;4.742;2022-11-24T12:45:57;14.00;;;3.00;;
10045;SDS011;5063;50.878;4.742;2022-11-24T12:51:36;14.03;;;3.27;;
10045;SDS011;5063;50.878;4.742;2022-11-24T12:54:07;16.83;;;3.10;;
10045;SDS011;5063;50.878;4.742;2022-11-24T12:56:49;11.77;;;2.87;;
10045;SDS011;5063;50.878;4.742;2022-11-24T13:03:03;8.90;;;2.60;;
10045;SDS011;5063;50.878;4.742;2022-11-24T13:08:09;12.73;;;3.47;;
10045;SDS011;5063;50.878;4.742;2022-11-24T13:10:38;10.40;;;3.23;;
10045;SDS011;5063;50.878;4.742;2022-11-24T13:13:11;10.17;;;3.20;;
10045;SDS011;5063;50.878;4.742;2022-11-24T13:18:52;13.87;;;3.57;;
10045;SDS011;5063;50.878;4.742;2022-11-24T13:26:43;9.13;;;3.17;;
10045;SDS011;5063;50.878;4.742;2022-11-24T13:37:05;7.93;;;2.77;;
10045;SDS011;5063;50.878;4.742;2022-11-24T13:39:51;10.70;;;2.70;;
10045;SDS011;5063;50.878;4.742;2022-11-24T13:42:19;7.07;;;2.30;;
10045;SDS011;5063;50.878;4.742;2022-11-24T13:50:12;11.67;;;2.87;;
10045;SDS011;5063;50.878;4.742;2022-11-24T13:55:37;9.87;;;3.20;;
10045;SDS011;5063;50.878;4.742;2022-11-24T13:58:21;12.50;;;3.17;;
10045;SDS011;5063;50.878;4.742;2022-11-24T14:06:34;10.07;;;2.93;;
10045;SDS011;5063;50.878;4.742;2022-11-24T14:09:13;10.10;;;2.73;;
10045;SDS011;5063;50.878;4.742;2022-11-24T14:11:41;10.33;;;3.20;;
10045;SDS011;5063;50.878;4.742;2022-11-24T14:14:18;12.80;;;3.43;;
10045;SDS011;5063;50.878;4.742;2022-11-24T14:16:45;13.37;;;3.20;;
10045;SDS011;5063;50.878;4.742;2022-11-24T14:19:10;11.23;;;3.37;;
10045;SDS011;5063;50.878;4.742;2022-11-24T14:21:42;9.73;;;3.03;;
10045;SDS011;5063;50.878;4.742;2022-11-24T14:24:26;10.97;;;2.90;;
10045;SDS011;5063;50.878;4.742;2022-11-24T14:26:56;10.53;;;2.93;;
10045;SDS011;5063;50.878;4.742;2022-11-24T14:29:23;9.43;;;2.43;;
10045;SDS011;5063;50.878;4.742;2022-11-24T14:31:53;15.93;;;3.73;;
10045;SDS011;5063;50.878;4.742;2022-11-24T14:34:20;8.80;;;2.57;;
10045;SDS011;5063;50.878;4.742;2022-11-24T14:36:48;12.43;;;2.33;;
10045;SDS011;5063;50.878;4.742;2022-11-24T14:39:16;11.27;;;3.73;;
10045;SDS011;5063;50.878;4.742;2022-11-24T14:44:28;25.13;;;3.83;;
10045;SDS011;5063;50.878;4.742;2022-11-24T14:47:05;12.63;;;3.37;;
10045;SDS011;5063;50.878;4.742;2022-11-24T14:49:39;9.27;;;3.27;;
10045;SDS011;5063;50.878;4.742;2022-11-24T14:52:08;12.20;;;3.03;;
10045;SDS011;5063;50.878;4.742;2022-11-24T14:54:51;10.33;;;3.07;;
10045;SDS011;5063;50.878;4.742;2022-11-24T14:57:24;12.77;;;3.33;;
10045;SDS011;5063;50.878;4.742;2022-11-24T15:02:46;8.57;;;3.20;;
10045;SDS011;5063;50.878;4.742;2022-11-24T15:05:16;12.73;;;2.93;;
10045;SDS011;5063;50.878;4.742;2022-11-24T15:07:47;9.30;;;3.03;;
10045;SDS011;5063;50.878;4.742;2022-11-24T15:13:20;16.53;;;3.67;;
10045;SDS011;5063;50.878;4.742;2022-11-24T15:15:55;17.23;;;4.20;;
10045;SDS011;5063;50.878;4.742;2022-11-24T15:18:42;9.77;;;4.00;;
10045;SDS011;5063;50.878;4.742;2022-11-24T15:21:10;13.70;;;3.50;;
10045;SDS011;5063;50.878;4.742;2022-11-24T15:23:36;12.43;;;3.50;;
10045;SDS011;5063;50.878;4.742;2022-11-24T15:28:32;11.50;;;3.17;;
10045;SDS011;5063;50.878;4.742;2022-11-24T15:31:00;14.77;;;3.13;;
10045;SDS011;5063;50.878;4.742;2022-11-24T15:33:30;7.17;;;2.53;;
10045;SDS011;5063;50.878;4.742;2022-11-24T15:35:57;10.70;;;3.60;;
10045;SDS011;5063;50.878;4.742;2022-11-24T15:38:24;8.40;;;3.03;;
10045;SDS011;5063;50.878;4.742;2022-11-24T15:40:50;15.60;;;3.90;;
10045;SDS011;5063;50.878;4.742;2022-11-24T15:43:20;8.87;;;3.53;;
10045;SDS011;5063;50.878;4.742;2022-11-24T15:45:55;13.20;;;3.57;;
10045;SDS011;5063;50.878;4.742;2022-11-24T15:48:21;14.43;;;3.10;;
10045;SDS011;5063;50.878;4.742;2022-11-24T15:50:47;10.80;;;3.17;;
10045;SDS011;5063;50.878;4.742;2022-11-24T15:56:13;15.17;;;3.83;;
10045;SDS011;5063;50.878;4.742;2022-11-24T15:58:43;8.50;;;3.07;;
10045;SDS011;5063;50.878;4.742;2022-11-24T16:01:08;10.47;;;3.73;;
10045;SDS011;5063;50.878;4.742;2022-11-24T16:03:34;12.93;;;3.47;;
10045;SDS011;5063;50.878;4.742;2022-11-24T16:06:00;6.97;;;3.10;;
10045;SDS011;5063;50.878;4.742;2022-11-24T16:08:26;12.30;;;3.77;;
10045;SDS011;5063;50.878;4.742;2022-11-24T16:10:51;13.17;;;3.70;;
10045;SDS011;5063;50.878;4.742;2022-11-24T16:13:17;11.40;;;3.47;;
10045;SDS011;5063;50.878;4.742;2022-11-24T16:15:44;10.93;;;3.50;;
10045;SDS011;5063;50.878;4.742;2022-11-24T16:18:10;16.27;;;4.10;;
10045;SDS011;5063;50.878;4.742;2022-11-24T16:20:38;7.20;;;3.00;;
10045;SDS011;5063;50.878;4.742;2022-11-24T16:23:04;12.23;;;3.97;;
10045;SDS011;5063;50.878;4.742;2022-11-24T16:25:30;12.20;;;2.93;;
10045;SDS011;5063;50.878;4.742;2022-11-24T16:27:56;15.80;;;3.97;;
10045;SDS011;5063;50.878;4.742;2022-11-24T16:30:22;12.90;;;4.00;;
10045;SDS011;5063;50.878;4.742;2022-11-24T16:32:48;7.43;;;4.00;;
10045;SDS011;5063;50.878;4.742;2022-11-24T16:35:15;12.27;;;3.70;;
10045;SDS011;5063;50.878;4.742;2022-11-24T16:37:40;11.47;;;2.90;;
10045;SDS011;5063;50.878;4.742;2022-11-24T16:40:06;8.97;;;3.17;;
10045;SDS011;5063;50.878;4.742;2022-11-24T16:42:32;10.90;;;4.00;;
10045;SDS011;5063;50.878;4.742;2022-11-24T16:44:58;11.50;;;3.47;;
10045;SDS011;5063;50.878;4.742;2022-11-24T16:47:24;16.33;;;3.60;;
10045;SDS011;5063;50.878;4.742;2022-11-24T16:49:49;8.53;;;2.83;;
10045;SDS011;5063;50.878;4.742;2022-11-24T16:52:15;13.80;;;2.97;;
10045;SDS011;5063;50.878;4.742;2022-11-24T16:54:41;10.77;;;3.07;;
10045;SDS011;5063;50.878;4.742;2022-11-24T16:57:09;12.53;;;3.17;;
10045;SDS011;5063;50.878;4.742;2022-11-24T16:59:36;12.87;;;3.43;;
10045;SDS011;5063;50.878;4.742;2022-11-24T17:02:02;12.67;;;3.57;;
10045;SDS011;5063;50.878;4.742;2022-11-24T17:04:28;10.97;;;2.90;;
10045;SDS011;5063;50.878;4.742;2022-11-24T17:06:53;13.77;;;3.37;;
10045;SDS011;5063;50.878;4.742;2022-11-24T17:09:19;8.10;;;3.10;;
10045;SDS011;5063;50.878;4.742;2022-11-24T17:11:45;11.57;;;3.37;;
10045;SDS011;5063;50.878;4.742;2022-11-24T17:14:11;11.90;;;3.40;;
10045;SDS011;5063;50.878;4.742;2022-11-24T17:16:37;9.43;;;3.40;;
10045;SDS011;5063;50.878;4.742;2022-11-24T17:19:03;12.67;;;3.73;;
10045;SDS011;5063;50.878;4.742;2022-11-24T17:21:29;9.53;;;3.10;;
10045;SDS011;5063;50.878;4.742;2022-11-24T17:23:57;13.20;;;3.30;;
10045;SDS011;5063;50.878;4.742;2022-11-24T17:26:25;21.63;;;3.33;;
10045;SDS011;5063;50.878;4.742;2022-11-24T17:28:52;13.80;;;3.47;;